Time;durP1;ratioP1;P1;durP2;ratioP2;P2;SDS_P1;SDS_P2;PMS_P1;PMS_P2;Temp;Humidity;BMP_temperature;BMP_pressure;BME280_temperature;BME280_humidity;BME280_pressure;Samples;Min_cycle;Max_cycle;Signal;HPM_P1;HPM_P2
2023/07/12 00:00:27;;;;;;;6.63;3.35;;;19.50;99.90;;;;;;5036679;28;20225;-66
2023/07/12 00:02:54;;;;;;;7.38;3.50;;;19.50;99.90;;;;;;5030029;28;20603;-66
2023/07/12 00:05:22;;;;;;;3.05;2.72;;;19.50;99.90;;;;;;5026284;28;20957;-66
2023/07/12 00:07:50;;;;;;;4.20;3.42;;;19.50;99.90;;;;;;5037474;28;20213;-68
2023/07/12 00:10:21;;;;;;;10.25;3.75;;;19.50;99.90;;;;;;5023280;28;20205;-68
2023/07/12 00:12:48;;;;;;;8.13;4.53;;;19.40;99.90;;;;;;5008727;28;20229;-68
2023/07/12 00:15:22;;;;;;;7.32;3.70;;;19.50;99.90;;;;;;5013150;28;20599;-68
2023/07/12 00:17:49;;;;;;;9.02;4.53;;;16.40;99.90;;;;;;5021379;28;20193;-69
2023/07/12 00:20:23;;;;;;;10.02;3.15;;;19.40;99.90;;;;;;5019218;28;20224;-69
2023/07/12 00:22:52;;;;;;;11.48;1.95;;;19.40;99.90;;;;;;5017082;28;20753;-69
2023/07/12 00:25:20;;;;;;;4.40;1.67;;;19.20;99.90;;;;;;5020376;28;20236;-69
2023/07/12 00:27:47;;;;;;;4.97;1.70;;;19.00;99.90;;;;;;5042613;28;20208;-69
2023/07/12 00:30:18;;;;;;;3.13;1.00;;;19.00;99.90;;;;;;5026226;28;20312;-69
2023/07/12 00:32:47;;;;;;;2.55;1.40;;;19.00;99.90;;;;;;5040597;28;20230;-69
2023/07/12 00:35:17;;;;;;;1.50;1.35;;;19.20;99.90;;;;;;5033496;28;20216;-68
2023/07/12 00:37:44;;;;;;;4.43;1.33;;;19.20;99.90;;;;;;5031056;28;20693;-68
2023/07/12 00:40:36;;;;;;;1.30;1.20;;;19.90;99.90;;;;;;5032490;28;20215;-68
2023/07/12 00:43:11;;;;;;;4.25;1.80;;;19.40;99.90;;;;;;5025412;28;20883;-68
2023/07/12 00:45:38;;;;;;;4.35;1.80;;;19.30;99.90;;;;;;5019161;28;20226;-68
2023/07/12 00:48:11;;;;;;;3.50;1.48;;;19.40;99.90;;;;;;5030228;28;20204;-68
2023/07/12 00:50:39;;;;;;;3.67;1.70;;;19.30;99.90;;;;;;5034352;28;20209;-69
2023/07/12 00:53:10;;;;;;;3.25;1.90;;;19.40;99.90;;;;;;5036753;28;20224;-69
2023/07/12 00:56:11;;;;;;;6.00;2.35;;;19.40;99.90;;;;;;5031692;28;23868;-69
2023/07/12 00:58:42;;;;;;;3.05;2.00;;;19.20;99.90;;;;;;4988085;28;20210;-70
2023/07/12 01:01:10;;;;;;;4.20;2.00;;;19.20;99.90;;;;;;5017345;28;20220;-70
2023/07/12 01:03:41;;;;;;;2.35;1.88;;;19.60;99.90;;;;;;5035489;28;21045;-70
2023/07/12 01:06:10;;;;;;;3.25;2.22;;;19.30;99.90;;;;;;5030789;28;20212;-70
2023/07/12 01:08:41;;;;;;;3.80;2.05;;;19.50;99.90;;;;;;5033954;28;20303;-69
2023/07/12 01:11:12;;;;;;;3.47;2.15;;;19.20;99.90;;;;;;5045562;28;20228;-69
2023/07/12 01:13:42;;;;;;;4.28;1.80;;;19.20;99.90;;;;;;5039792;28;20332;-70
2023/07/12 01:16:09;;;;;;;2.55;1.90;;;19.20;99.90;;;;;;5026283;28;20298;-69
2023/07/12 01:18:36;;;;;;;4.05;1.95;;;19.20;99.90;;;;;;5035129;28;20251;-70
2023/07/12 01:21:16;;;;;;;2.15;1.88;;;19.30;99.90;;;;;;5038554;28;20225;-70
2023/07/12 01:23:43;;;;;;;2.20;1.95;;;19.30;99.90;;;;;;5038502;28;20222;-69
2023/07/12 01:26:22;;;;;;;2.90;1.80;;;19.30;99.90;;;;;;5038655;28;20209;-69
2023/07/12 01:28:51;;;;;;;4.75;1.80;;;19.30;99.90;;;;;;5030198;28;20211;-69
2023/07/12 01:31:18;;;;;;;4.78;1.80;;;19.30;99.90;;;;;;5017235;28;20216;-69
2023/07/12 01:33:46;;;;;;;3.95;1.65;;;19.30;99.90;;;;;;5033012;28;20236;-69
2023/07/12 01:36:14;;;;;;;2.63;1.38;;;19.30;99.90;;;;;;5034449;28;20211;-69
2023/07/12 01:38:41;;;;;;;3.22;1.70;;;19.20;99.90;;;;;;5031882;28;20205;-69
2023/07/12 01:41:08;;;;;;;3.47;1.92;;;19.20;99.90;;;;;;5040963;28;20197;-69
2023/07/12 01:43:35;;;;;;;4.07;2.50;;;19.30;99.90;;;;;;5031460;28;20205;-69
2023/07/12 01:46:02;;;;;;;24.35;9.50;;;19.30;99.90;;;;;;5034467;28;20693;-70
2023/07/12 01:48:29;;;;;;;12.55;5.38;;;19.40;99.90;;;;;;5010270;28;20220;-69
2023/07/12 01:50:56;;;;;;;3.72;1.77;;;19.40;99.90;;;;;;5031447;28;20204;-70
2023/07/12 01:53:24;;;;;;;2.90;1.65;;;19.30;99.90;;;;;;5031869;28;20278;-70
2023/07/12 01:55:51;;;;;;;3.85;1.67;;;19.30;99.90;;;;;;5046782;28;20213;-70
2023/07/12 01:58:17;;;;;;;5.72;1.58;;;19.30;99.90;;;;;;5037864;28;20193;-69
2023/07/12 02:00:44;;;;;;;1.48;1.38;;;19.40;99.90;;;;;;5030746;28;20205;-70
2023/07/12 02:03:11;;;;;;;2.42;1.70;;;19.30;99.90;;;;;;5022625;28;20217;-69
2023/07/12 02:05:38;;;;;;;1.70;1.60;;;19.30;99.90;;;;;;5033154;28;20201;-69
2023/07/12 02:08:05;;;;;;;2.00;1.55;;;19.30;99.90;;;;;;5030716;28;20209;-70
2023/07/12 02:10:33;;;;;;;1.40;1.30;;;19.20;99.90;;;;;;5034253;28;20586;-69
2023/07/12 02:13:00;;;;;;;2.63;1.58;;;19.30;99.90;;;;;;5044784;28;20571;-69
2023/07/12 02:15:27;;;;;;;1.63;1.50;;;19.20;99.90;;;;;;5033768;28;20666;-70
2023/07/12 02:17:54;;;;;;;1.60;1.50;;;19.30;99.90;;;;;;5022068;28;20239;-70
2023/07/12 02:20:21;;;;;;;1.77;1.67;;;19.30;99.90;;;;;;5033029;28;20224;-70
2023/07/12 02:22:49;;;;;;;1.55;1.33;;;19.30;99.90;;;;;;5035862;28;20205;-70
2023/07/12 02:25:16;;;;;;;2.70;1.60;;;19.40;99.90;;;;;;5034423;28;20724;-70
2023/07/12 02:27:45;;;;;;;2.10;1.88;;;19.30;99.90;;;;;;5045362;28;20204;-70
2023/07/12 02:30:14;;;;;;;2.97;1.67;;;19.50;99.90;;;;;;5046868;28;20238;-70
2023/07/12 02:32:40;;;;;;;1.63;1.52;;;19.40;99.90;;;;;;5017151;28;22160;-70
2023/07/12 02:35:08;;;;;;;1.67;1.33;;;19.40;99.90;;;;;;5041365;28;20224;-70
2023/07/12 02:37:35;;;;;;;2.10;1.50;;;19.30;99.90;;;;;;5035537;28;20197;-69
2023/07/12 02:40:02;;;;;;;4.20;1.50;;;19.30;99.90;;;;;;5027809;28;20204;-69
2023/07/12 02:42:29;;;;;;;4.20;1.63;;;19.30;99.90;;;;;;5043827;28;20244;-70
2023/07/12 02:44:58;;;;;;;1.70;1.20;;;19.30;99.90;;;;;;5043242;28;20205;-70
2023/07/12 02:47:24;;;;;;;1.75;1.65;;;19.30;99.90;;;;;;5029783;28;20193;-70
2023/07/12 02:49:51;;;;;;;2.08;1.70;;;19.30;99.90;;;;;;5022247;28;23984;-70
2023/07/12 02:52:18;;;;;;;1.40;1.30;;;19.30;99.90;;;;;;5037689;28;20212;-70
2023/07/12 02:54:45;;;;;;;1.60;1.25;;;19.60;99.90;;;;;;5018425;28;20248;-70
2023/07/12 02:57:13;;;;;;;1.88;1.60;;;19.30;99.90;;;;;;5044925;28;20207;-70
2023/07/12 02:59:40;;;;;;;4.95;1.50;;;19.30;99.90;;;;;;5044271;28;20212;-70
2023/07/12 03:02:11;;;;;;;2.70;1.60;;;19.30;99.90;;;;;;5027026;28;20216;-70
2023/07/12 03:04:38;;;;;;;1.83;1.63;;;19.20;99.90;;;;;;5014081;28;20213;-70
2023/07/12 03:07:05;;;;;;;3.47;1.45;;;19.20;99.90;;;;;;5029074;28;21190;-70
2023/07/12 03:09:32;;;;;;;2.53;1.80;;;19.30;99.90;;;;;;5036394;28;20611;-70
2023/07/12 03:11:59;;;;;;;2.95;1.65;;;19.30;99.90;;;;;;5023549;28;24891;-70
2023/07/12 03:14:26;;;;;;;5.07;1.95;;;19.40;99.90;;;;;;5037386;28;20229;-70
2023/07/12 03:16:53;;;;;;;2.55;1.90;;;19.30;99.90;;;;;;5025370;28;20205;-69
2023/07/12 03:19:21;;;;;;;2.00;1.40;;;19.30;99.90;;;;;;5018153;28;20677;-70
2023/07/12 03:21:48;;;;;;;2.25;1.73;;;19.50;99.90;;;;;;5034881;28;20217;-70
2023/07/12 03:24:15;;;;;;;4.43;1.65;;;18.70;99.90;;;;;;5038629;28;20240;-70
2023/07/12 03:26:42;;;;;;;3.00;1.80;;;19.30;99.90;;;;;;5022244;28;20208;-70
2023/07/12 03:29:08;;;;;;;3.72;2.22;;;19.30;99.90;;;;;;5036703;28;20749;-70
2023/07/12 03:31:36;;;;;;;5.15;1.90;;;19.30;99.90;;;;;;5045123;28;20192;-69
2023/07/12 03:34:03;;;;;;;2.47;1.90;;;19.40;99.90;;;;;;5006795;28;20225;-70
2023/07/12 03:36:31;;;;;;;2.50;1.55;;;19.30;99.90;;;;;;5043175;28;20680;-70
2023/07/12 03:39:00;;;;;;;2.22;1.80;;;19.30;99.90;;;;;;5029398;28;20216;-70
2023/07/12 03:41:27;;;;;;;3.63;1.85;;;19.30;99.90;;;;;;5029847;28;20201;-69
2023/07/12 03:43:54;;;;;;;3.08;1.95;;;19.50;99.90;;;;;;5030793;28;20585;-70
2023/07/12 03:46:21;;;;;;;2.08;1.90;;;19.30;99.90;;;;;;5040503;28;20200;-70
2023/07/12 03:48:48;;;;;;;3.58;2.42;;;19.30;99.90;;;;;;5026449;28;20208;-70
2023/07/12 03:51:17;;;;;;;2.78;2.30;;;19.30;99.90;;;;;;5015048;28;20252;-70
2023/07/12 03:53:46;;;;;;;4.25;2.50;;;19.30;99.90;;;;;;5034703;28;20523;-70
2023/07/12 03:56:13;;;;;;;2.78;2.20;;;19.50;99.90;;;;;;5015411;28;20215;-70
2023/07/12 03:58:40;;;;;;;2.85;2.60;;;19.30;99.90;;;;;;5021634;28;20228;-70
2023/07/12 04:01:09;;;;;;;2.80;2.60;;;19.30;99.90;;;;;;5037926;28;20196;-70
2023/07/12 04:03:37;;;;;;;2.90;2.30;;;19.40;99.90;;;;;;5026427;28;20236;-69
2023/07/12 04:06:05;;;;;;;4.53;3.40;;;19.30;99.90;;;;;;5015615;28;20799;-70
2023/07/12 04:08:33;;;;;;;2.85;2.55;;;19.30;99.90;;;;;;5029244;28;20723;-69
2023/07/12 04:11:01;;;;;;;2.60;2.40;;;18.60;99.90;;;;;;5040689;28;20200;-70
2023/07/12 04:13:29;;;;;;;4.35;2.63;;;19.20;99.90;;;;;;5018356;28;20220;-70
2023/07/12 04:15:57;;;;;;;3.35;2.63;;;19.20;99.90;;;;;;5044399;28;20689;-70
2023/07/12 04:18:24;;;;;;;3.55;2.85;;;19.10;99.90;;;;;;5039735;28;20212;-70
2023/07/12 04:20:52;;;;;;;4.65;2.65;;;19.10;99.90;;;;;;5009788;28;20216;-69
2023/07/12 04:23:19;;;;;;;4.07;2.65;;;19.00;99.90;;;;;;5033940;28;20284;-70
2023/07/12 04:25:46;;;;;;;3.55;2.55;;;19.00;99.90;;;;;;5038151;28;20573;-69
2023/07/12 04:28:15;;;;;;;4.40;2.90;;;19.00;99.90;;;;;;5030772;28;20201;-70
2023/07/12 04:30:41;;;;;;;3.72;3.13;;;19.20;99.90;;;;;;5030168;28;20189;-69
2023/07/12 04:33:08;;;;;;;3.55;2.70;;;19.00;99.90;;;;;;5046190;28;20287;-69
2023/07/12 04:35:39;;;;;;;2.90;2.35;;;19.00;99.90;;;;;;5003459;28;20770;-70
2023/07/12 04:38:06;;;;;;;5.68;2.95;;;19.00;99.90;;;;;;5044776;28;20734;-70
2023/07/12 04:40:32;;;;;;;5.78;2.53;;;19.10;99.90;;;;;;5030630;28;20212;-70
2023/07/12 04:42:59;;;;;;;2.95;2.40;;;19.20;99.90;;;;;;5028370;28;20915;-69
2023/07/12 04:45:28;;;;;;;2.78;2.30;;;19.10;99.90;;;;;;5030420;28;20201;-69
2023/07/12 04:47:54;;;;;;;2.65;2.40;;;19.10;99.90;;;;;;5039245;28;20201;-70
2023/07/12 04:50:21;;;;;;;3.53;2.60;;;19.10;99.90;;;;;;5029735;28;20792;-69
2023/07/12 04:52:48;;;;;;;2.85;2.20;;;19.10;99.90;;;;;;5004073;28;20320;-69
2023/07/12 04:55:24;;;;;;;4.20;2.67;;;19.00;99.90;;;;;;5025256;28;20228;-69
2023/07/12 04:57:51;;;;;;;2.67;2.30;;;19.00;99.90;;;;;;5027217;28;20204;-70
2023/07/12 05:00:19;;;;;;;6.03;2.70;;;18.90;99.90;;;;;;5011557;28;20201;-69
2023/07/12 05:02:47;;;;;;;4.72;2.30;;;18.90;99.90;;;;;;5030402;28;20879;-70
2023/07/12 05:05:14;;;;;;;6.78;2.72;;;18.90;99.90;;;;;;5012857;28;20205;-70
2023/07/12 05:07:42;;;;;;;7.05;2.58;;;18.80;99.90;;;;;;5020669;28;20228;-70
2023/07/12 05:10:11;;;;;;;7.38;2.60;;;18.80;99.90;;;;;;5033444;28;20205;-70
2023/07/12 05:12:38;;;;;;;2.08;1.80;;;18.60;99.90;;;;;;5047870;28;21287;-70
2023/07/12 05:15:07;;;;;;;5.50;2.33;;;18.60;99.90;;;;;;5026060;28;20232;-70
2023/07/12 05:17:35;;;;;;;5.05;2.55;;;18.60;99.90;;;;;;5034531;28;20229;-70
2023/07/12 05:20:06;;;;;;;4.07;2.15;;;18.60;99.90;;;;;;5030054;28;20233;-70
2023/07/12 05:22:34;;;;;;;2.22;2.00;;;18.60;99.90;;;;;;5021466;28;20373;-70
2023/07/12 05:25:01;;;;;;;5.47;2.13;;;18.60;99.90;;;;;;5043576;28;20226;-69
2023/07/12 05:27:28;;;;;;;4.75;2.42;;;18.60;99.90;;;;;;5040969;28;20197;-70
2023/07/12 05:29:54;;;;;;;5.72;2.47;;;18.50;99.90;;;;;;5027503;28;20205;-69
2023/07/12 05:32:22;;;;;;;3.60;2.13;;;18.50;99.90;;;;;;4993508;28;21563;-69
2023/07/12 05:34:49;;;;;;;4.63;2.05;;;18.40;99.90;;;;;;5041243;28;20327;-70
2023/07/12 05:37:17;;;;;;;6.47;2.63;;;18.40;99.90;;;;;;4972812;28;20883;-70
2023/07/12 05:39:44;;;;;;;5.40;1.90;;;18.50;99.90;;;;;;5033291;28;20221;-69
2023/07/12 05:42:11;;;;;;;1.70;1.60;;;18.50;99.90;;;;;;5031111;28;20217;-69
2023/07/12 05:44:38;;;;;;;4.65;2.25;;;18.50;99.90;;;;;;5017858;28;20224;-69
2023/07/12 05:47:05;;;;;;;4.72;1.83;;;18.50;99.90;;;;;;4992225;28;20224;-70
2023/07/12 05:49:32;;;;;;;4.22;1.83;;;18.50;99.90;;;;;;5021260;28;20224;-70
2023/07/12 05:52:00;;;;;;;2.13;1.65;;;18.50;99.90;;;;;;5005501;28;20291;-69
2023/07/12 05:54:29;;;;;;;3.95;1.88;;;18.50;99.90;;;;;;4994903;28;20803;-70
2023/07/12 05:56:57;;;;;;;2.72;1.92;;;18.60;99.90;;;;;;5037958;28;20220;-69
2023/07/12 05:59:24;;;;;;;3.20;1.95;;;18.60;99.90;;;;;;5040123;28;20201;-69
2023/07/12 06:01:51;;;;;;;2.67;1.90;;;18.60;99.90;;;;;;5013847;28;20200;-69
2023/07/12 06:04:17;;;;;;;2.67;2.08;;;18.70;99.90;;;;;;5029221;28;20208;-70
2023/07/12 06:06:44;;;;;;;5.43;2.40;;;18.70;99.90;;;;;;5013019;28;20268;-70
2023/07/12 06:09:12;;;;;;;2.60;2.28;;;18.70;99.90;;;;;;4994799;28;21202;-70
2023/07/12 06:11:40;;;;;;;3.50;2.42;;;18.80;99.90;;;;;;5033397;28;20314;-70
2023/07/12 06:14:07;;;;;;;5.05;2.35;;;18.80;99.90;;;;;;5030872;28;20248;-70
2023/07/12 06:16:34;;;;;;;4.88;2.80;;;18.80;99.90;;;;;;5023291;28;20216;-70
2023/07/12 06:19:03;;;;;;;2.78;2.20;;;18.80;99.90;;;;;;5015519;28;20354;-70
2023/07/12 06:21:29;;;;;;;4.82;3.03;;;18.80;99.90;;;;;;5022817;28;24554;-70
2023/07/12 06:23:59;;;;;;;4.13;2.80;;;18.80;99.90;;;;;;4966735;28;20461;-70
2023/07/12 06:26:26;;;;;;;3.70;2.80;;;18.80;99.90;;;;;;5020326;28;20224;-69
2023/07/12 06:28:54;;;;;;;4.03;2.25;;;18.70;99.90;;;;;;5025831;28;20227;-70
2023/07/12 06:31:21;;;;;;;3.30;2.35;;;18.80;99.90;;;;;;5011552;28;20235;-70
2023/07/12 06:33:48;;;;;;;3.50;2.92;;;18.70;99.90;;;;;;5026767;28;20233;-70
2023/07/12 06:36:15;;;;;;;8.68;2.70;;;18.80;99.90;;;;;;5032907;28;20232;-70
2023/07/12 06:38:41;;;;;;;4.50;2.90;;;18.80;99.90;;;;;;5014149;28;20673;-70
2023/07/12 06:41:08;;;;;;;4.55;2.83;;;18.80;99.90;;;;;;4998250;28;20823;-70
2023/07/12 06:43:35;;;;;;;6.68;3.20;;;18.80;99.90;;;;;;5039607;28;20579;-69
2023/07/12 06:46:03;;;;;;;4.55;2.75;;;17.60;99.90;;;;;;5029398;28;21914;-70
2023/07/12 06:48:30;;;;;;;5.70;3.10;;;18.90;99.90;;;;;;5032849;28;20189;-70
2023/07/12 06:50:57;;;;;;;5.72;2.72;;;19.00;99.90;;;;;;5031685;28;20201;-69
2023/07/12 06:53:26;;;;;;;7.28;3.45;;;19.00;99.90;;;;;;5025041;28;20809;-70
2023/07/12 06:55:53;;;;;;;6.88;2.95;;;18.90;99.90;;;;;;5000059;28;20235;-69
2023/07/12 06:58:20;;;;;;;4.63;2.70;;;18.90;99.90;;;;;;5032924;28;20201;-70
2023/07/12 07:00:47;;;;;;;3.45;2.83;;;19.00;99.90;;;;;;5023667;28;20556;-69
2023/07/12 07:03:16;;;;;;;4.63;2.58;;;19.10;99.90;;;;;;5028037;28;20312;-70
2023/07/12 07:05:45;;;;;;;5.32;2.53;;;19.00;99.90;;;;;;5014093;28;20208;-70
2023/07/12 07:08:13;;;;;;;6.07;2.65;;;18.90;99.90;;;;;;5021666;28;20197;-69
2023/07/12 07:10:40;;;;;;;4.25;2.53;;;19.00;99.90;;;;;;5020176;28;20201;-70
2023/07/12 07:13:07;;;;;;;8.35;2.60;;;19.10;99.90;;;;;;5024307;28;20224;-70
2023/07/12 07:15:33;;;;;;;7.03;2.60;;;19.00;99.90;;;;;;5035963;28;20235;-69
2023/07/12 07:18:00;;;;;;;6.00;2.83;;;19.10;99.90;;;;;;5024786;28;20445;-70
2023/07/12 07:20:29;;;;;;;4.75;2.30;;;19.10;99.90;;;;;;5009286;28;20197;-70
2023/07/12 07:22:55;;;;;;;3.67;2.45;;;19.20;99.90;;;;;;5030849;28;20208;-69
2023/07/12 07:25:25;;;;;;;4.45;2.15;;;19.00;99.90;;;;;;4970478;28;20696;-69
2023/07/12 07:27:52;;;;;;;5.40;2.13;;;19.10;99.90;;;;;;4999781;28;20257;-69
2023/07/12 07:30:19;;;;;;;3.03;2.00;;;19.00;99.90;;;;;;5017481;28;20225;-70
2023/07/12 07:32:46;;;;;;;4.55;2.22;;;19.00;99.90;;;;;;5014904;28;20224;-69
2023/07/12 07:35:13;;;;;;;4.32;2.10;;;19.10;99.90;;;;;;5020663;28;20229;-70
2023/07/12 07:37:42;;;;;;;5.53;2.20;;;19.10;99.90;;;;;;5027284;28;20222;-70
2023/07/12 07:40:10;;;;;;;8.57;2.08;;;19.00;99.90;;;;;;5020295;28;20302;-70
2023/07/12 07:42:37;;;;;;;4.85;2.55;;;19.10;99.90;;;;;;5000955;28;20299;-69
2023/07/12 07:45:04;;;;;;;5.25;2.28;;;19.10;99.90;;;;;;5029294;28;20205;-69
2023/07/12 07:47:31;;;;;;;6.97;2.17;;;19.00;99.90;;;;;;5024887;28;20208;-69
2023/07/12 07:49:58;;;;;;;8.70;2.22;;;19.20;99.90;;;;;;5034658;28;20205;-69
2023/07/12 07:52:25;;;;;;;7.72;2.88;;;19.20;99.90;;;;;;5021658;28;20310;-69
2023/07/12 07:54:54;;;;;;;9.68;2.92;;;19.20;99.90;;;;;;5016866;28;20668;-69
2023/07/12 07:57:22;;;;;;;10.48;3.17;;;19.40;99.90;;;;;;5020845;28;20232;-69
2023/07/12 07:59:49;;;;;;;7.32;2.97;;;19.40;99.90;;;;;;5020644;28;20212;-69
2023/07/12 08:02:16;;;;;;;7.35;3.22;;;19.40;99.90;;;;;;5025466;28;20201;-69
2023/07/12 08:04:42;;;;;;;8.77;3.35;;;19.40;99.90;;;;;;5020860;28;20200;-69
2023/07/12 08:07:11;;;;;;;4.82;2.78;;;19.50;99.90;;;;;;5021943;28;20208;-69
2023/07/12 08:09:38;;;;;;;4.55;2.40;;;19.50;99.90;;;;;;5022238;28;20193;-69
2023/07/12 08:12:08;;;;;;;4.45;2.53;;;19.40;99.90;;;;;;5039012;28;20220;-69
2023/07/12 08:14:34;;;;;;;5.13;2.50;;;19.50;99.90;;;;;;4997426;28;20360;-69
2023/07/12 08:17:01;;;;;;;5.03;2.42;;;19.50;99.90;;;;;;5028942;28;20224;-69
2023/07/12 08:19:28;;;;;;;4.90;2.53;;;19.60;99.90;;;;;;5025753;28;20199;-69
2023/07/12 08:21:55;;;;;;;5.82;3.00;;;19.60;99.90;;;;;;5018637;28;20780;-69
2023/07/12 08:24:21;;;;;;;8.30;2.50;;;19.60;99.90;;;;;;5040123;28;20713;-69
2023/07/12 08:26:48;;;;;;;7.85;2.90;;;19.60;99.90;;;;;;5022122;28;20240;-69
2023/07/12 08:29:16;;;;;;;7.15;3.03;;;19.70;99.90;;;;;;5024468;28;20471;-69
2023/07/12 08:31:43;;;;;;;7.45;3.33;;;19.70;99.90;;;;;;4997227;28;20483;-69
2023/07/12 08:34:10;;;;;;;5.45;2.58;;;19.60;99.90;;;;;;5034591;28;20485;-69
2023/07/12 08:36:37;;;;;;;6.53;3.10;;;19.70;99.90;;;;;;5006314;28;20225;-69
2023/07/12 08:39:04;;;;;;;6.38;2.78;;;19.60;99.90;;;;;;5031833;28;20228;-69
2023/07/12 08:41:30;;;;;;;4.55;2.75;;;19.60;99.90;;;;;;5015362;28;20740;-69
2023/07/12 08:43:57;;;;;;;7.30;2.75;;;19.60;99.90;;;;;;5018110;28;20205;-69
2023/07/12 08:46:28;;;;;;;4.57;2.45;;;19.60;99.90;;;;;;5001553;28;20274;-69
2023/07/12 08:48:58;;;;;;;4.88;2.10;;;19.60;99.90;;;;;;5024065;28;20302;-69
2023/07/12 08:51:28;;;;;;;5.93;2.67;;;19.70;99.90;;;;;;5021394;28;20198;-69
2023/07/12 08:53:55;;;;;;;6.60;2.65;;;19.60;99.90;;;;;;5017077;28;20495;-69
2023/07/12 08:56:23;;;;;;;7.60;2.75;;;19.60;99.90;;;;;;5037571;28;20248;-69
2023/07/12 08:58:52;;;;;;;6.15;2.60;;;19.80;99.90;;;;;;5015308;28;20210;-69
2023/07/12 09:01:42;;;;;;;7.43;2.80;;;19.80;99.90;;;;;;5014703;28;20212;-69
2023/07/12 09:04:23;;;;;;;4.70;2.80;;;19.90;99.90;;;;;;5030651;28;20258;-69
2023/07/12 09:06:51;;;;;;;7.55;2.58;;;20.00;99.90;;;;;;5019816;28;20208;-69
2023/07/12 09:09:18;;;;;;;4.35;2.72;;;20.10;99.90;;;;;;5009431;28;20555;-68
2023/07/12 09:11:46;;;;;;;7.78;3.00;;;20.10;99.90;;;;;;5022792;28;20228;-68
2023/07/12 09:14:17;;;;;;;10.40;3.85;;;20.20;99.90;;;;;;5008432;28;20196;-68
2023/07/12 09:16:49;;;;;;;6.97;2.92;;;20.30;99.90;;;;;;5015269;28;20216;-69
2023/07/12 09:19:19;;;;;;;9.45;3.22;;;20.30;99.90;;;;;;5018217;28;20666;-69
2023/07/12 09:21:49;;;;;;;7.07;3.10;;;20.40;99.90;;;;;;5035217;28;20217;-68
2023/07/12 09:24:21;;;;;;;5.30;2.90;;;20.50;99.90;;;;;;5007009;28;20275;-69
2023/07/12 09:26:49;;;;;;;5.00;2.35;;;20.50;99.90;;;;;;5024896;28;20253;-69
2023/07/12 09:29:21;;;;;;;6.00;2.97;;;20.70;99.90;;;;;;5007325;28;20612;-69
2023/07/12 09:31:51;;;;;;;8.40;3.53;;;20.70;99.90;;;;;;5011163;28;20787;-68
2023/07/12 09:34:22;;;;;;;7.72;2.65;;;20.70;99.90;;;;;;5021438;28;20202;-68
2023/07/12 09:36:56;;;;;;;4.72;2.47;;;20.70;99.90;;;;;;5029579;28;20260;-69
2023/07/12 09:39:25;;;;;;;5.07;2.38;;;20.60;99.90;;;;;;5007977;28;20346;-69
2023/07/12 09:41:56;;;;;;;9.02;2.67;;;20.70;99.90;;;;;;5026283;28;20296;-69
2023/07/12 09:44:23;;;;;;;10.55;2.65;;;20.70;99.90;;;;;;5019992;28;20600;-69
2023/07/12 09:46:54;;;;;;;7.07;2.45;;;20.60;99.90;;;;;;5006034;28;21383;-69
2023/07/12 09:49:25;;;;;;;5.63;2.78;;;20.70;99.90;;;;;;5031620;28;20616;-69
2023/07/12 09:52:02;;;;;;;6.68;3.05;;;20.80;99.90;;;;;;5015337;28;20225;-69
2023/07/12 09:54:36;;;;;;;9.55;2.88;;;20.90;99.90;;;;;;5000885;28;20352;-69
2023/07/12 09:57:10;;;;;;;6.93;2.90;;;20.80;99.90;;;;;;5037368;28;20987;-68
2023/07/12 09:59:50;;;;;;;5.35;2.80;;;20.70;99.90;;;;;;5018180;28;20200;-68
2023/07/12 10:02:24;;;;;;;4.55;2.55;;;20.80;99.90;;;;;;5002473;28;20208;-69
2023/07/12 10:04:55;;;;;;;9.52;3.03;;;21.00;99.90;;;;;;5022763;28;20201;-68
2023/07/12 10:07:35;;;;;;;4.57;2.45;;;21.20;99.90;;;;;;4999794;28;20248;-69
2023/07/12 10:10:02;;;;;;;7.28;3.13;;;21.20;99.90;;;;;;5024464;28;20217;-69
2023/07/12 10:12:34;;;;;;;4.40;2.65;;;21.30;99.90;;;;;;5045648;28;20194;-68
2023/07/12 10:15:01;;;;;;;12.50;2.88;;;21.40;99.90;;;;;;5034338;28;20224;-68
2023/07/12 10:17:37;;;;;;;6.65;2.80;;;21.60;99.90;;;;;;5001768;28;21345;-68
2023/07/12 10:20:05;;;;;;;6.53;2.40;;;21.60;99.90;;;;;;5028528;28;20314;-68
2023/07/12 10:22:35;;;;;;;5.78;2.65;;;21.60;99.90;;;;;;5040057;28;20235;-68
2023/07/12 10:25:10;;;;;;;7.07;2.72;;;21.50;99.90;;;;;;5025998;28;20245;-68
2023/07/12 10:27:45;;;;;;;6.22;2.40;;;21.50;99.90;;;;;;5042668;28;20279;-68
2023/07/12 10:30:17;;;;;;;3.72;2.20;;;20.70;99.90;;;;;;5036388;28;20189;-68
2023/07/12 10:32:50;;;;;;;4.47;1.88;;;21.40;99.90;;;;;;5023618;28;20200;-67
2023/07/12 10:35:22;;;;;;;4.00;2.45;;;21.40;99.90;;;;;;5006104;28;20570;-68
2023/07/12 10:37:57;;;;;;;5.82;2.63;;;21.40;99.90;;;;;;5039415;28;20189;-67
2023/07/12 10:40:27;;;;;;;4.43;2.50;;;21.40;99.90;;;;;;5023152;28;20402;-67
2023/07/12 10:42:57;;;;;;;3.15;2.30;;;21.30;99.90;;;;;;5045681;28;20702;-67
2023/07/12 10:45:26;;;;;;;4.72;2.28;;;21.40;99.90;;;;;;5027090;28;20229;-68
2023/07/12 10:47:56;;;;;;;4.97;2.55;;;21.50;99.90;;;;;;5017979;28;20213;-67
2023/07/12 10:50:28;;;;;;;6.53;2.15;;;21.50;99.90;;;;;;5014531;28;20224;-67
2023/07/12 10:53:03;;;;;;;5.93;2.33;;;21.70;99.90;;;;;;5029478;28;21324;-67
2023/07/12 10:55:39;;;;;;;5.75;2.50;;;21.90;99.90;;;;;;5044547;28;20228;-67
2023/07/12 10:58:47;;;;;;;6.68;2.63;;;21.80;99.90;;;;;;5030450;28;20212;-67
2023/07/12 11:01:38;;;;;;;4.63;2.25;;;21.90;99.90;;;;;;5018587;28;20320;-67
2023/07/12 11:04:12;;;;;;;8.52;2.67;;;21.90;99.90;;;;;;5018043;28;20201;-68
2023/07/12 11:06:55;;;;;;;7.03;3.03;;;21.90;99.90;;;;;;5028691;28;20745;-68
2023/07/12 11:09:23;;;;;;;5.95;2.72;;;21.80;99.90;;;;;;5013482;28;20770;-67
2023/07/12 11:11:57;;;;;;;6.95;2.65;;;21.70;99.90;;;;;;5039968;28;20204;-67
2023/07/12 11:14:46;;;;;;;4.70;2.42;;;21.80;99.90;;;;;;5020342;28;20448;-67
2023/07/12 11:17:22;;;;;;;5.47;2.50;;;21.70;99.90;;;;;;5029535;28;20221;-67
2023/07/12 11:20:03;;;;;;;2.60;2.10;;;21.60;99.90;;;;;;5022967;28;20203;-67
2023/07/12 11:22:52;;;;;;;4.97;2.92;;;21.40;99.90;;;;;;5004357;28;20310;-67
2023/07/12 11:25:27;;;;;;;12.20;3.45;;;21.00;99.90;;;;;;5027675;28;20224;-67
2023/07/12 11:27:58;;;;;;;6.70;2.70;;;21.00;99.90;;;;;;5023795;28;20197;-67
2023/07/12 11:30:39;;;;;;;6.00;3.10;;;20.40;99.90;;;;;;5032736;28;20406;-67
2023/07/12 11:33:15;;;;;;;8.05;3.00;;;20.20;99.90;;;;;;5037273;28;20190;-69
2023/07/12 11:35:47;;;;;;;4.28;2.55;;;19.60;99.90;;;;;;5027157;28;20220;-69
2023/07/12 11:38:17;;;;;;;5.82;2.42;;;18.70;99.90;;;;;;5004650;28;20201;-70
2023/07/12 11:40:46;;;;;;;6.10;2.38;;;18.60;99.90;;;;;;5044628;28;20203;-69
2023/07/12 11:43:40;;;;;;;5.53;2.10;;;18.10;99.90;;;;;;5026486;28;20205;-68
2023/07/12 11:46:15;;;;;;;4.20;2.08;;;17.70;99.90;;;;;;5011184;28;20256;-70
2023/07/12 11:48:44;;;;;;;4.25;2.42;;;18.10;99.90;;;;;;5014732;28;20220;-69
2023/07/12 11:51:20;;;;;;;4.53;1.92;;;18.10;99.90;;;;;;5006951;28;20225;-69
2023/07/12 11:53:57;;;;;;;4.93;2.15;;;17.80;99.90;;;;;;4973717;28;20602;-70
2023/07/12 11:56:25;;;;;;;4.35;2.13;;;18.30;99.90;;;;;;5018229;28;20229;-69
2023/07/12 11:58:52;;;;;;;3.33;2.28;;;18.50;99.90;;;;;;5021573;28;20760;-69
2023/07/12 12:01:21;;;;;;;4.32;2.40;;;18.80;99.90;;;;;;5024484;28;20231;-70
2023/07/12 12:03:50;;;;;;;6.05;2.70;;;18.90;99.90;;;;;;5025805;28;20271;-70
2023/07/12 12:06:20;;;;;;;7.28;2.90;;;19.10;99.90;;;;;;5001733;28;20224;-69
2023/07/12 12:08:51;;;;;;;4.13;2.55;;;19.30;99.90;;;;;;5005665;28;20217;-70
2023/07/12 12:11:18;;;;;;;5.13;2.78;;;19.30;99.90;;;;;;5030999;28;20236;-69
2023/07/12 12:13:49;;;;;;;5.63;2.53;;;19.80;99.90;;;;;;4999810;28;20231;-70
2023/07/12 12:16:23;;;;;;;6.97;2.80;;;19.90;99.90;;;;;;5036304;28;20224;-70
2023/07/12 12:18:55;;;;;;;7.45;2.88;;;20.10;99.90;;;;;;5027072;28;20224;-70
2023/07/12 12:21:24;;;;;;;5.90;2.72;;;20.10;99.90;;;;;;5021085;28;20208;-70
2023/07/12 12:23:54;;;;;;;6.03;3.30;;;20.50;99.90;;;;;;4993001;28;20236;-70
2023/07/12 12:26:25;;;;;;;4.60;3.30;;;20.40;99.90;;;;;;5021325;28;20211;-70
2023/07/12 12:28:56;;;;;;;6.57;3.15;;;20.50;99.90;;;;;;5020349;28;20200;-70
2023/07/12 12:31:25;;;;;;;4.50;2.80;;;20.40;99.90;;;;;;5034584;28;20223;-70
2023/07/12 12:33:59;;;;;;;6.40;3.17;;;20.40;99.90;;;;;;5026775;28;20681;-69
2023/07/12 12:36:29;;;;;;;5.72;2.85;;;20.30;99.90;;;;;;5021242;28;20233;-69
2023/07/12 12:39:03;;;;;;;7.75;2.72;;;20.40;99.90;;;;;;4996968;28;20513;-69
2023/07/12 12:41:38;;;;;;;4.03;2.40;;;20.30;99.90;;;;;;5024663;28;20203;-69
2023/07/12 12:44:16;;;;;;;3.15;2.03;;;20.10;99.90;;;;;;5017134;28;20196;-70
2023/07/12 12:46:43;;;;;;;6.75;2.35;;;20.20;99.90;;;;;;5022827;28;20258;-69
2023/07/12 12:49:20;;;;;;;3.88;2.25;;;;;;;;;;5027807;28;20224;-69
2023/07/12 12:51:49;;;;;;;5.05;1.95;;;19.90;99.90;;;;;;5024684;28;20208;-69
2023/07/12 12:54:16;;;;;;;2.75;1.70;;;20.20;99.90;;;;;;4992974;28;21098;-70
2023/07/12 12:56:43;;;;;;;5.35;1.80;;;20.30;99.90;;;;;;5024329;28;20220;-69
2023/07/12 12:59:11;;;;;;;3.85;1.98;;;20.40;99.90;;;;;;5005747;28;20209;-69